createdAt,value
2019-03-18T00:01:40.513Z,6.13
2019-03-18T00:04:10.531Z,2.13
2019-03-18T00:06:41.903Z,2.57
2019-03-18T00:09:11.912Z,2.30
2019-03-18T00:11:42.103Z,6.53
2019-03-18T00:14:12.224Z,4.73
2019-03-18T00:16:42.471Z,3.20
2019-03-18T00:19:12.764Z,3.43
2019-03-18T00:21:43.244Z,3.30
2019-03-18T00:24:13.352Z,2.73
2019-03-18T00:26:44.854Z,3.10
2019-03-18T00:29:15.016Z,1.17
2019-03-18T00:31:45.196Z,3.33
2019-03-18T00:34:15.308Z,2.10
2019-03-18T00:36:46.388Z,1.30
2019-03-18T00:39:17.877Z,1.57
2019-03-18T00:41:49.649Z,1.63
2019-03-18T00:44:19.838Z,2.67
2019-03-18T00:46:49.910Z,3.60
2019-03-18T00:49:19.953Z,1.80
2019-03-18T00:51:50.160Z,1.30
2019-03-18T00:54:20.189Z,2.13
2019-03-18T00:56:50.070Z,1.90
2019-03-18T00:59:20.029Z,0.77
2019-03-18T01:01:50.343Z,1.33
2019-03-18T01:04:20.363Z,0.60
2019-03-18T01:06:51.767Z,0.60
2019-03-18T01:09:21.843Z,1.80
2019-03-18T01:11:52.304Z,1.47
2019-03-18T01:14:22.743Z,2.33
2019-03-18T01:16:52.866Z,3.27
2019-03-18T01:19:24.065Z,1.07
2019-03-18T01:21:54.315Z,2.13
2019-03-18T01:24:24.217Z,3.80
2019-03-18T01:26:54.365Z,3.03
2019-03-18T01:29:24.577Z,4.73
2019-03-18T01:31:55.028Z,1.70
2019-03-18T01:34:25.115Z,2.07
2019-03-18T01:36:56.055Z,1.33
2019-03-18T01:39:26.109Z,2.33
2019-03-18T01:41:56.293Z,1.40
2019-03-18T01:44:26.294Z,2.03
2019-03-18T01:46:56.435Z,2.10
2019-03-18T01:49:26.545Z,1.13
2019-03-18T01:51:56.670Z,3.40
2019-03-18T01:54:26.685Z,1.50
2019-03-18T01:56:56.826Z,2.67
2019-03-18T01:59:26.973Z,2.60
2019-03-18T02:01:57.494Z,2.13
2019-03-18T02:04:27.575Z,2.43
2019-03-18T02:06:57.834Z,4.23
2019-03-18T02:09:27.925Z,4.40
2019-03-18T02:11:58.231Z,4.77
2019-03-18T02:14:28.335Z,4.93
2019-03-18T02:16:58.545Z,2.67
2019-03-18T02:19:28.689Z,3.17
2019-03-18T02:21:59.918Z,3.53
2019-03-18T02:24:30.314Z,2.27
2019-03-18T02:27:00.780Z,4.03
2019-03-18T02:29:30.868Z,2.67
2019-03-18T02:32:01.320Z,1.40
2019-03-18T02:34:32.449Z,2.23
2019-03-18T02:37:03.589Z,1.10
2019-03-18T02:39:34.838Z,2.60
2019-03-18T02:42:05.046Z,1.13
2019-03-18T02:44:35.184Z,1.80
2019-03-18T02:47:05.175Z,2.63
2019-03-18T02:49:35.203Z,2.70
2019-03-18T02:52:05.188Z,3.87
2019-03-18T02:54:35.222Z,4.30
2019-03-18T02:57:05.585Z,5.20
2019-03-18T02:59:35.674Z,6.47
2019-03-18T03:02:06.275Z,6.27
2019-03-18T03:04:36.378Z,8.87
2019-03-18T03:07:06.798Z,10.20
2019-03-18T03:09:37.148Z,9.27
2019-03-18T03:12:07.593Z,14.13
2019-03-18T03:14:37.714Z,13.67
2019-03-18T03:17:08.038Z,13.57
2019-03-18T03:19:38.247Z,14.80
2019-03-18T03:22:08.540Z,18.37
2019-03-18T03:24:38.726Z,21.37
2019-03-18T03:27:09.812Z,17.33
2019-03-18T03:29:41.420Z,14.47
2019-03-18T03:32:11.933Z,14.43
2019-03-18T03:34:42.070Z,14.73
2019-03-18T03:37:13.045Z,12.30
2019-03-18T03:39:43.063Z,7.17
2019-03-18T03:42:14.873Z,8.20
2019-03-18T03:44:44.947Z,5.10
2019-03-18T03:47:16.376Z,6.67
2019-03-18T03:49:49.149Z,4.80
2019-03-18T03:52:19.457Z,6.27
2019-03-18T03:54:49.496Z,4.57
2019-03-18T03:57:20.005Z,7.27
2019-03-18T03:59:50.214Z,7.63
2019-03-18T04:02:20.514Z,4.90
2019-03-18T04:04:50.727Z,6.10
2019-03-18T04:07:21.074Z,5.67
2019-03-18T04:09:51.169Z,4.10
2019-03-18T04:12:21.464Z,7.30
2019-03-18T04:14:51.706Z,6.23
2019-03-18T04:17:22.059Z,9.20
2019-03-18T04:19:52.350Z,8.87
2019-03-18T04:22:22.487Z,7.00
2019-03-18T04:24:52.688Z,5.67
2019-03-18T04:27:24.786Z,7.37
2019-03-18T04:29:54.648Z,7.57
2019-03-18T04:32:25.074Z,10.90
2019-03-18T04:34:55.227Z,6.90
2019-03-18T04:37:26.353Z,8.30
2019-03-18T04:39:56.727Z,11.03
2019-03-18T04:42:26.806Z,8.07
2019-03-18T04:44:56.982Z,9.00
2019-03-18T04:47:27.648Z,12.43
2019-03-18T04:49:57.810Z,8.80
2019-03-18T04:52:27.988Z,8.13
2019-03-18T04:54:58.088Z,9.27
2019-03-18T04:57:28.203Z,8.30
2019-03-18T04:59:58.099Z,12.73
2019-03-18T05:02:28.366Z,9.73
2019-03-18T05:04:58.585Z,10.80
2019-03-18T05:07:28.784Z,11.77
2019-03-18T05:10:01.753Z,14.80
2019-03-18T05:12:35.629Z,12.70
2019-03-18T05:15:08.455Z,9.57
2019-03-18T05:17:38.667Z,8.97
2019-03-18T05:20:12.586Z,7.53
2019-03-18T05:22:42.734Z,8.20
2019-03-18T05:25:14.024Z,10.07
2019-03-18T05:27:44.119Z,6.73
2019-03-18T05:30:14.762Z,7.07
2019-03-18T05:32:45.115Z,9.17
2019-03-18T05:35:15.300Z,9.50
2019-03-18T05:37:46.214Z,9.93
2019-03-18T05:40:16.233Z,9.83
2019-03-18T05:42:46.516Z,14.07
2019-03-18T05:45:16.842Z,12.37
2019-03-18T05:47:47.082Z,13.30
2019-03-18T05:50:19.824Z,11.57
2019-03-18T05:52:50.006Z,9.80
2019-03-18T05:55:20.174Z,10.80
2019-03-18T05:57:50.490Z,9.70
2019-03-18T06:00:20.625Z,11.00
2019-03-18T06:02:51.061Z,10.17
2019-03-18T06:05:21.360Z,10.03
2019-03-18T06:07:51.470Z,13.67
2019-03-18T06:10:21.495Z,13.60
2019-03-18T06:12:51.817Z,19.40
2019-03-18T06:15:21.940Z,16.47
2019-03-18T06:17:53.094Z,22.20
2019-03-18T06:20:23.314Z,24.30
2019-03-18T06:22:53.512Z,24.40
2019-03-18T06:25:23.609Z,23.87
2019-03-18T06:27:55.481Z,16.17
2019-03-18T06:30:25.815Z,16.20
2019-03-18T06:32:56.391Z,17.20
2019-03-18T06:35:26.459Z,16.53
2019-03-18T06:37:59.046Z,18.00
2019-03-18T06:40:29.225Z,22.50
2019-03-18T06:42:59.467Z,24.87
2019-03-18T06:45:29.698Z,26.27
2019-03-18T06:48:04.978Z,29.47
2019-03-18T06:50:33.204Z,23.37
2019-03-18T06:53:03.592Z,19.03
2019-03-18T06:55:33.739Z,19.98
2019-03-18T06:58:04.302Z,21.07
2019-03-18T07:00:36.702Z,16.60
2019-03-18T07:03:07.568Z,15.23
2019-03-18T07:05:38.129Z,19.57
2019-03-18T07:08:08.189Z,16.90
2019-03-18T07:10:38.494Z,14.50
2019-03-18T07:13:09.719Z,19.53
2019-03-18T07:15:39.920Z,24.10
2019-03-18T07:18:18.103Z,17.53
2019-03-18T07:20:41.998Z,25.37
2019-03-18T07:23:12.327Z,24.97
2019-03-18T07:25:42.529Z,22.10
2019-03-18T07:28:14.283Z,20.47
2019-03-18T07:30:45.911Z,18.80
2019-03-18T07:33:16.115Z,22.80
2019-03-18T07:35:46.206Z,20.33
2019-03-18T07:38:16.465Z,17.73
2019-03-18T07:40:46.635Z,17.20
2019-03-18T07:43:16.799Z,20.60
2019-03-18T07:45:46.970Z,18.30
2019-03-18T07:48:30.041Z,17.57
2019-03-18T07:50:48.906Z,21.03
2019-03-18T07:53:20.178Z,17.40
2019-03-18T07:55:50.374Z,18.77
2019-03-18T07:58:22.476Z,18.23
2019-03-18T08:00:52.398Z,17.57
2019-03-18T08:03:22.906Z,18.40
2019-03-18T08:05:53.121Z,21.33
2019-03-18T08:08:23.279Z,19.47
2019-03-18T08:10:53.494Z,16.83
2019-03-18T08:13:24.475Z,19.13
2019-03-18T08:15:54.649Z,10.97
2019-03-18T08:18:24.695Z,12.87
2019-03-18T08:20:54.812Z,16.90
2019-03-18T08:23:24.934Z,10.07
2019-03-18T08:25:54.950Z,12.97
2019-03-18T08:28:26.739Z,14.67
2019-03-18T08:30:57.070Z,14.13
2019-03-18T08:33:27.219Z,14.60
2019-03-18T08:35:57.509Z,13.30
2019-03-18T08:38:28.551Z,11.30
2019-03-18T08:40:58.982Z,10.67
2019-03-18T08:43:29.212Z,6.37
2019-03-18T08:46:00.330Z,8.87
2019-03-18T08:48:30.589Z,9.03
2019-03-18T08:51:00.638Z,10.63
2019-03-18T08:53:30.948Z,9.63
2019-03-18T08:56:01.057Z,8.03
2019-03-18T08:58:31.243Z,9.07
2019-03-18T09:01:01.564Z,8.77
2019-03-18T09:03:31.588Z,8.97
2019-03-18T09:06:01.601Z,11.27
2019-03-18T09:08:32.901Z,9.60
2019-03-18T09:11:03.063Z,9.30
2019-03-18T09:13:34.279Z,7.30
2019-03-18T09:16:04.522Z,8.97
2019-03-18T09:18:34.504Z,15.67
2019-03-18T09:21:04.567Z,6.77
2019-03-18T09:23:34.566Z,7.40
2019-03-18T09:26:04.494Z,7.23
2019-03-18T09:28:34.801Z,6.57
2019-03-18T09:31:04.907Z,7.70
2019-03-18T09:33:35.243Z,5.93
2019-03-18T09:36:05.379Z,5.20
2019-03-18T09:38:36.323Z,6.70
2019-03-18T09:41:06.227Z,6.97
2019-03-18T09:43:36.535Z,6.67
2019-03-18T09:46:06.620Z,8.80
2019-03-18T09:48:36.671Z,7.90
2019-03-18T09:51:09.454Z,6.67
2019-03-18T09:53:38.430Z,5.90
2019-03-18T09:56:08.463Z,6.00
2019-03-18T09:58:38.599Z,7.80
2019-03-18T10:01:08.693Z,6.47
2019-03-18T10:03:38.941Z,7.43
2019-03-18T10:06:10.774Z,7.60
2019-03-18T10:08:40.969Z,8.47
2019-03-18T10:11:11.137Z,6.23
2019-03-18T10:13:41.435Z,4.80
2019-03-18T10:16:12.825Z,7.17
2019-03-18T10:18:44.035Z,7.90
2019-03-18T10:21:14.145Z,6.97
2019-03-18T10:23:44.322Z,6.67
2019-03-18T10:26:14.302Z,6.87
2019-03-18T10:28:44.414Z,9.50
2019-03-18T10:31:14.624Z,6.00
2019-03-18T10:33:45.021Z,6.07
2019-03-18T10:36:15.322Z,8.10
2019-03-18T10:38:46.528Z,7.23
2019-03-18T10:41:16.627Z,6.23
2019-03-18T10:43:46.832Z,11.40
2019-03-18T10:46:16.949Z,8.47
2019-03-18T10:48:47.177Z,7.97
2019-03-18T10:51:17.390Z,5.90
2019-03-18T10:53:47.676Z,5.47
2019-03-18T10:56:17.736Z,6.83
2019-03-18T10:58:48.069Z,4.97
2019-03-18T11:01:18.233Z,6.50
2019-03-18T11:03:49.692Z,6.00
2019-03-18T11:06:19.853Z,6.83
2019-03-18T11:08:49.943Z,7.50
2019-03-18T11:11:19.930Z,7.70
2019-03-18T11:13:49.999Z,7.87
2019-03-18T11:16:20.140Z,4.80
2019-03-18T11:18:50.284Z,4.73
2019-03-18T11:21:20.576Z,5.87
2019-03-18T11:23:50.739Z,4.80
2019-03-18T11:26:20.789Z,5.23
2019-03-18T11:28:51.119Z,5.50
2019-03-18T11:31:21.197Z,5.07
2019-03-18T11:33:51.547Z,5.77
2019-03-18T11:36:21.745Z,4.70
2019-03-18T11:38:52.726Z,5.13
2019-03-18T11:41:22.927Z,4.60
2019-03-18T11:43:53.150Z,8.57
2019-03-18T11:46:23.152Z,6.40
2019-03-18T11:48:53.269Z,5.67
2019-03-18T11:51:23.199Z,7.13
2019-03-18T11:53:53.273Z,7.53
2019-03-18T11:56:23.530Z,6.10
2019-03-18T11:58:53.753Z,9.63
2019-03-18T12:01:24.087Z,7.67
2019-03-18T12:03:54.159Z,8.00
2019-03-18T12:06:24.099Z,6.90
2019-03-18T12:08:54.009Z,8.73
2019-03-18T12:11:24.042Z,8.10
2019-03-18T12:13:54.169Z,10.37
2019-03-18T12:16:24.385Z,4.80
2019-03-18T12:18:54.305Z,9.67
2019-03-18T12:21:24.609Z,7.13
2019-03-18T12:23:54.720Z,7.23
2019-03-18T12:26:24.831Z,10.57
2019-03-18T12:28:54.947Z,8.73
2019-03-18T12:31:25.180Z,7.80
2019-03-18T12:33:57.437Z,8.93
2019-03-18T12:36:27.200Z,6.63
2019-03-18T12:38:58.195Z,6.80
2019-03-18T12:41:28.314Z,7.23
2019-03-18T12:43:58.239Z,8.83
2019-03-18T12:46:28.395Z,10.47
2019-03-18T12:48:58.517Z,7.87
2019-03-18T12:51:28.617Z,9.30
2019-03-18T12:53:58.808Z,8.43
2019-03-18T12:56:29.187Z,6.40
2019-03-18T12:58:59.242Z,8.10
2019-03-18T13:01:30.099Z,8.13
2019-03-18T13:04:00.507Z,5.40
2019-03-18T13:06:33.410Z,8.57
2019-03-18T13:09:02.291Z,12.47
2019-03-18T13:11:33.617Z,12.03
2019-03-18T13:14:03.750Z,11.37
2019-03-18T13:16:33.942Z,7.47
2019-03-18T13:19:04.129Z,7.80
2019-03-18T13:21:34.389Z,7.93
2019-03-18T13:24:04.436Z,8.57
2019-03-18T13:26:35.651Z,4.97
2019-03-18T13:29:05.779Z,5.30
2019-03-18T13:31:37.464Z,5.87
2019-03-18T13:34:07.619Z,5.33
2019-03-18T13:36:37.770Z,8.87
2019-03-18T13:39:09.099Z,6.73
2019-03-18T13:41:39.327Z,5.60
2019-03-18T13:44:09.672Z,5.20
2019-03-18T13:46:39.722Z,5.90
2019-03-18T13:49:09.789Z,5.67
2019-03-18T13:51:39.855Z,3.80
2019-03-18T13:54:10.025Z,3.70
2019-03-18T13:56:40.186Z,3.93
2019-03-18T13:59:10.469Z,6.30
2019-03-18T14:01:40.632Z,5.97
2019-03-18T14:04:11.715Z,5.17
2019-03-18T14:06:43.279Z,4.60
2019-03-18T14:09:14.928Z,6.20
2019-03-18T14:11:46.214Z,6.10
2019-03-18T14:14:16.407Z,4.33
2019-03-18T14:16:46.358Z,6.90
2019-03-18T14:19:17.554Z,7.97
2019-03-18T14:21:47.862Z,6.13
2019-03-18T14:24:18.022Z,7.10
2019-03-18T14:26:48.475Z,7.70
2019-03-18T14:29:20.629Z,7.23
2019-03-18T14:31:50.920Z,9.27
2019-03-18T14:34:20.959Z,10.97
2019-03-18T14:36:51.571Z,8.17
2019-03-18T14:39:22.693Z,7.80
2019-03-18T14:41:52.940Z,6.70
2019-03-18T14:44:25.569Z,10.70
2019-03-18T14:46:55.865Z,8.10
2019-03-18T14:49:26.128Z,9.57
2019-03-18T14:51:56.557Z,8.03
2019-03-18T14:54:26.581Z,8.60
2019-03-18T14:56:58.379Z,5.10
2019-03-18T14:59:28.598Z,5.93
2019-03-18T15:01:58.813Z,4.90
2019-03-18T15:04:29.191Z,6.00
2019-03-18T15:06:59.650Z,7.43
2019-03-18T15:09:29.691Z,4.00
2019-03-18T15:12:01.129Z,4.90
2019-03-18T15:14:33.975Z,4.53
2019-03-18T15:17:04.465Z,8.40
2019-03-18T15:19:35.057Z,6.37
2019-03-18T15:22:05.249Z,6.97
2019-03-18T15:24:35.291Z,3.23
2019-03-18T15:27:05.715Z,3.83
2019-03-18T15:29:36.132Z,4.00
2019-03-18T15:32:06.265Z,5.23
2019-03-18T15:34:36.449Z,4.03
2019-03-18T15:37:06.673Z,5.80
2019-03-18T15:39:39.138Z,5.63
2019-03-18T15:42:10.492Z,7.07
2019-03-18T15:44:40.700Z,3.97
2019-03-18T15:47:10.747Z,6.93
2019-03-18T15:49:42.137Z,4.57
2019-03-18T15:52:12.181Z,8.30
2019-03-18T15:54:53.298Z,4.30
2019-03-18T15:57:14.351Z,8.03
2019-03-18T15:59:45.657Z,9.87
2019-03-18T16:02:16.140Z,5.90
2019-03-18T16:04:46.378Z,6.47
2019-03-18T16:07:16.561Z,8.97
2019-03-18T16:09:46.710Z,4.80
2019-03-18T16:12:17.050Z,6.50
2019-03-18T16:14:48.732Z,9.37
2019-03-18T16:17:19.944Z,7.47
2019-03-18T16:19:51.124Z,7.40
2019-03-18T16:22:23.750Z,7.40
2019-03-18T16:24:55.279Z,8.23
2019-03-18T16:27:25.539Z,6.50
2019-03-18T16:29:55.645Z,7.27
2019-03-18T16:32:26.086Z,5.33
2019-03-18T16:34:57.478Z,6.13
2019-03-18T16:37:27.624Z,6.70
2019-03-18T16:39:58.699Z,9.70
2019-03-18T16:42:29.107Z,10.20
2019-03-18T16:44:59.319Z,7.73
2019-03-18T16:47:31.339Z,10.67
2019-03-18T16:50:01.405Z,18.23
2019-03-18T16:52:35.978Z,9.43
2019-03-18T16:55:04.265Z,10.23
2019-03-18T16:57:34.713Z,5.90
2019-03-18T17:00:12.303Z,5.57
2019-03-18T17:02:42.793Z,5.73
2019-03-18T17:05:19.500Z,5.10
2019-03-18T17:07:50.365Z,6.90
2019-03-18T17:10:22.879Z,7.33
2019-03-18T17:12:55.988Z,7.30
2019-03-18T17:15:26.944Z,10.07
2019-03-18T17:18:00.116Z,6.53
2019-03-18T17:20:31.859Z,12.60
2019-03-18T17:23:04.336Z,8.90
2019-03-18T17:25:40.610Z,11.47
2019-03-18T17:28:13.189Z,12.60
2019-03-18T17:30:44.136Z,13.27
2019-03-18T17:33:16.345Z,13.43
2019-03-18T17:35:50.087Z,22.13
2019-03-18T17:38:22.921Z,18.27
2019-03-18T17:40:54.852Z,16.27
2019-03-18T17:43:26.655Z,13.33
2019-03-18T17:45:56.735Z,15.73
2019-03-18T17:48:28.874Z,14.80
2019-03-18T17:50:58.924Z,15.63
2019-03-18T17:53:29.129Z,18.20
2019-03-18T17:56:06.829Z,19.60
2019-03-18T17:58:38.712Z,12.73
2019-03-18T18:01:09.004Z,16.93
2019-03-18T18:03:39.366Z,21.50
2019-03-18T18:06:09.667Z,20.53
2019-03-18T18:08:39.960Z,20.43
2019-03-18T18:11:10.082Z,19.80
2019-03-18T18:13:40.539Z,20.53
2019-03-18T18:16:13.918Z,21.20
2019-03-18T18:18:44.314Z,20.37
2019-03-18T18:21:14.557Z,20.93
2019-03-18T18:23:44.781Z,20.03
2019-03-18T18:26:15.564Z,17.00
2019-03-18T18:28:45.817Z,14.33
2019-03-18T18:31:16.150Z,20.83
2019-03-18T18:33:47.900Z,18.03
2019-03-18T18:36:18.035Z,23.23
2019-03-18T18:38:49.681Z,25.80
2019-03-18T18:41:19.876Z,27.40
2019-03-18T18:43:50.092Z,35.83
2019-03-18T18:46:20.451Z,29.80
2019-03-18T18:48:50.559Z,20.40
2019-03-18T18:51:22.420Z,21.47
2019-03-18T18:53:52.654Z,26.67
2019-03-18T18:56:22.860Z,23.67
2019-03-18T18:58:52.954Z,17.10
2019-03-18T19:01:24.321Z,15.17
2019-03-18T19:03:54.522Z,15.73
2019-03-18T19:06:24.677Z,17.17
2019-03-18T19:08:54.972Z,18.13
2019-03-18T19:11:25.270Z,23.07
2019-03-18T19:13:55.440Z,22.83
2019-03-18T19:16:25.803Z,26.63
2019-03-18T19:18:55.975Z,25.07
2019-03-18T19:21:27.546Z,25.03
2019-03-18T19:23:57.637Z,26.40
2019-03-18T19:26:27.853Z,22.63
2019-03-18T19:28:57.969Z,28.27
2019-03-18T19:31:28.091Z,24.27
2019-03-18T19:33:58.300Z,21.93
2019-03-18T19:36:28.783Z,27.93
2019-03-18T19:38:59.080Z,27.43
2019-03-18T19:41:29.206Z,31.17
2019-03-18T19:43:59.934Z,30.90
2019-03-18T19:46:31.205Z,27.93
2019-03-18T19:49:03.107Z,23.77
2019-03-18T19:51:33.334Z,25.53
2019-03-18T19:54:04.723Z,25.23
2019-03-18T19:56:35.119Z,17.50
2019-03-18T19:59:06.374Z,21.30
2019-03-18T20:01:36.894Z,23.17
2019-03-18T20:04:06.916Z,26.60
2019-03-18T20:06:37.218Z,27.33
2019-03-18T20:09:08.332Z,26.27
2019-03-18T20:11:39.017Z,24.67
2019-03-18T20:14:09.093Z,22.73
2019-03-18T20:16:42.124Z,20.87
2019-03-18T20:19:13.251Z,28.83
2019-03-18T20:21:43.547Z,27.57
2019-03-18T20:24:15.405Z,24.97
2019-03-18T20:26:45.789Z,21.67
2019-03-18T20:29:16.001Z,37.80
2019-03-18T20:31:46.228Z,30.20
2019-03-18T20:34:16.815Z,25.03
2019-03-18T20:36:47.167Z,27.83
2019-03-18T20:39:20.886Z,25.40
2019-03-18T20:41:51.209Z,22.83
2019-03-18T20:44:21.787Z,20.93
2019-03-18T20:46:52.229Z,23.57
2019-03-18T20:49:22.672Z,24.17
2019-03-18T20:51:54.409Z,28.23
2019-03-18T20:54:25.120Z,26.97
2019-03-18T20:56:55.351Z,24.47
2019-03-18T20:59:25.958Z,26.37
2019-03-18T21:01:56.108Z,26.23
2019-03-18T21:04:27.036Z,30.97
2019-03-18T21:07:01.580Z,34.73
2019-03-18T21:09:31.969Z,29.53
2019-03-18T21:12:03.999Z,31.50
2019-03-18T21:14:36.030Z,25.90
2019-03-18T21:17:07.500Z,26.80
2019-03-18T21:19:38.472Z,26.00
2019-03-18T21:22:08.775Z,26.57
2019-03-18T21:24:39.697Z,30.53
2019-03-18T21:27:10.191Z,34.50
2019-03-18T21:29:40.319Z,39.20
2019-03-18T21:32:10.437Z,36.47
2019-03-18T21:34:40.850Z,35.47
2019-03-18T21:37:11.123Z,36.87
2019-03-18T21:39:43.066Z,37.37
2019-03-18T21:42:17.636Z,34.60
2019-03-18T21:44:48.874Z,30.13
2019-03-18T21:47:21.161Z,32.53
2019-03-18T21:49:54.924Z,29.00
2019-03-18T21:52:25.355Z,30.67
2019-03-18T21:54:55.813Z,26.67
2019-03-18T21:57:26.657Z,29.43
2019-03-18T21:59:57.539Z,31.43
2019-03-18T22:02:28.227Z,30.73
2019-03-18T22:04:58.249Z,23.83
2019-03-18T22:07:30.109Z,27.03
2019-03-18T22:10:01.639Z,25.73
2019-03-18T22:12:32.077Z,22.00
2019-03-18T22:15:02.228Z,19.30
2019-03-18T22:17:32.845Z,16.40
2019-03-18T22:20:03.313Z,23.97
2019-03-18T22:22:33.535Z,24.07
2019-03-18T22:25:05.805Z,22.20
2019-03-18T22:27:39.947Z,25.47
2019-03-18T22:30:13.947Z,17.47
2019-03-18T22:32:47.796Z,20.03
2019-03-18T22:35:19.631Z,18.07
2019-03-18T22:37:49.685Z,21.83
2019-03-18T22:40:19.634Z,18.90
2019-03-18T22:42:52.594Z,17.10
2019-03-18T22:45:24.587Z,16.87
2019-03-18T22:47:55.166Z,17.67
2019-03-18T22:50:25.274Z,19.07
2019-03-18T22:52:56.206Z,21.10
2019-03-18T22:55:27.286Z,20.80
2019-03-18T22:57:57.544Z,21.63
2019-03-18T23:00:29.243Z,18.03
2019-03-18T23:03:02.699Z,22.50
2019-03-18T23:05:33.602Z,21.17
2019-03-18T23:08:04.222Z,22.23
2019-03-18T23:10:34.642Z,23.27
2019-03-18T23:13:04.743Z,21.57
2019-03-18T23:15:35.640Z,23.00
2019-03-18T23:18:07.286Z,21.10
2019-03-18T23:20:37.365Z,20.17
2019-03-18T23:23:07.660Z,21.90
2019-03-18T23:25:38.245Z,20.07
2019-03-18T23:28:08.517Z,22.27
2019-03-18T23:30:38.754Z,20.13
2019-03-18T23:33:09.181Z,20.87
2019-03-18T23:35:39.617Z,20.63
2019-03-18T23:38:09.869Z,21.00
2019-03-18T23:40:39.894Z,20.60
2019-03-18T23:43:09.867Z,23.37
2019-03-18T23:45:41.269Z,16.20
2019-03-18T23:48:11.316Z,20.73
2019-03-18T23:50:41.387Z,16.93
2019-03-18T23:53:11.776Z,19.53
2019-03-18T23:55:42.035Z,20.53
2019-03-18T23:58:12.187Z,22.20
